createdAt,value
2022-08-18T00:00:20.103Z,0
2022-08-18T00:01:58.867Z,0
2022-08-18T00:03:37.607Z,0
2022-08-18T00:05:16.359Z,0
2022-08-18T00:06:55.108Z,0
2022-08-18T00:08:33.862Z,0
2022-08-18T00:10:12.608Z,0
2022-08-18T00:14:20.657Z,0
2022-08-18T00:15:28.970Z,0
2022-08-18T00:17:36.242Z,0
2022-08-18T00:18:42.633Z,0
2022-08-18T00:19:49.040Z,0
2022-08-18T00:20:55.451Z,0
2022-08-18T00:22:01.818Z,0
2022-08-18T00:23:08.214Z,0
2022-08-18T00:24:14.614Z,0
2022-08-18T00:25:20.994Z,0
2022-08-18T00:26:27.371Z,0
2022-08-18T00:27:33.765Z,0
2022-08-18T00:28:40.187Z,0
2022-08-18T00:29:46.603Z,0
2022-08-18T00:30:53.036Z,0
2022-08-18T00:31:59.462Z,0
2022-08-18T00:33:05.889Z,0
2022-08-18T00:34:12.312Z,0
2022-08-18T00:35:18.738Z,0
2022-08-18T00:36:25.178Z,0
2022-08-18T00:37:31.599Z,0
2022-08-18T00:38:38.023Z,0
2022-08-18T00:39:44.445Z,0
2022-08-18T00:40:50.869Z,0
2022-08-18T00:41:57.300Z,0
2022-08-18T00:43:03.725Z,0
2022-08-18T00:44:10.157Z,0
2022-08-18T00:45:16.707Z,0
2022-08-18T00:46:23.242Z,0
2022-08-18T00:47:29.754Z,0
2022-08-18T00:48:36.270Z,0
2022-08-18T00:49:42.783Z,0
2022-08-18T00:50:49.287Z,0
2022-08-18T00:51:55.799Z,0
2022-08-18T00:53:02.317Z,0
2022-08-18T00:54:08.832Z,0
2022-08-18T00:55:15.343Z,0
2022-08-18T00:56:21.859Z,0
2022-08-18T00:57:28.362Z,0
2022-08-18T00:58:34.878Z,0
2022-08-18T00:59:42.825Z,0
2022-08-18T01:00:49.569Z,0
2022-08-18T01:01:56.312Z,0
2022-08-18T01:03:03.070Z,0
2022-08-18T01:04:09.817Z,0
2022-08-18T01:05:16.570Z,0
2022-08-18T01:06:23.322Z,0
2022-08-18T01:07:30.093Z,0
2022-08-18T01:08:36.823Z,0
2022-08-18T01:09:43.580Z,0
2022-08-18T01:10:50.327Z,0
2022-08-18T01:11:57.080Z,0
2022-08-18T01:13:03.843Z,0
2022-08-18T01:16:21.963Z,0
2022-08-18T01:17:29.202Z,0
2022-08-18T01:18:36.436Z,0
2022-08-18T01:20:15.170Z,0
2022-08-18T01:21:53.896Z,0
2022-08-18T01:23:32.621Z,0
2022-08-18T01:25:11.356Z,0
2022-08-18T01:26:50.084Z,0
2022-08-18T01:28:28.801Z,0
2022-08-18T01:30:07.529Z,0
2022-08-18T01:31:46.266Z,0
2022-08-18T01:33:24.991Z,0
2022-08-18T01:34:32.228Z,0
2022-08-18T01:37:33.002Z,0
2022-08-18T01:40:58.814Z,0
2022-08-18T01:41:55.229Z,0
2022-08-18T01:43:01.720Z,0
2022-08-18T01:44:08.243Z,0
2022-08-18T01:45:14.774Z,0
2022-08-18T01:46:21.290Z,0
2022-08-18T01:47:27.813Z,0
2022-08-18T01:48:34.346Z,0
2022-08-18T01:49:40.860Z,0
2022-08-18T01:50:47.387Z,0
2022-08-18T01:51:53.910Z,0
2022-08-18T01:53:00.427Z,0
2022-08-18T01:54:06.955Z,0
2022-08-18T01:55:13.473Z,0
2022-08-18T01:56:19.991Z,0
2022-08-18T01:57:26.510Z,0
2022-08-18T01:58:33.022Z,0
2022-08-18T01:59:39.543Z,0
2022-08-18T02:00:46.060Z,0
2022-08-18T02:01:52.576Z,0
2022-08-18T02:02:59.081Z,0
2022-08-18T02:04:05.614Z,0
2022-08-18T02:05:12.105Z,0
2022-08-18T02:06:18.625Z,0
2022-08-18T02:07:25.149Z,0
2022-08-18T02:08:31.889Z,0
2022-08-18T02:09:38.638Z,0
2022-08-18T02:10:45.396Z,0
2022-08-18T02:11:52.165Z,0
2022-08-18T02:12:58.916Z,0
2022-08-18T02:14:05.681Z,0
2022-08-18T02:15:12.433Z,0
2022-08-18T02:16:19.177Z,0
2022-08-18T02:17:25.935Z,0
2022-08-18T02:18:32.689Z,0
2022-08-18T02:19:39.439Z,0
2022-08-18T02:20:46.194Z,0
2022-08-18T02:21:52.959Z,0
2022-08-18T02:23:00.206Z,0
2022-08-18T02:24:38.930Z,0
2022-08-18T02:26:17.649Z,0
2022-08-18T02:27:56.376Z,0
2022-08-18T02:29:35.098Z,0
2022-08-18T02:31:13.820Z,0
2022-08-18T02:32:52.545Z,0
2022-08-18T02:34:31.264Z,0
2022-08-18T02:36:09.988Z,0
2022-08-18T02:37:48.719Z,0
2022-08-18T02:39:27.461Z,0
2022-08-18T02:41:06.206Z,0
2022-08-18T02:42:44.957Z,0
2022-08-18T02:46:52.991Z,0
2022-08-18T02:47:59.445Z,0
2022-08-18T02:50:08.577Z,0
2022-08-18T02:51:14.973Z,0
2022-08-18T02:52:21.376Z,0
2022-08-18T02:53:27.772Z,0
2022-08-18T02:54:34.168Z,0
2022-08-18T02:55:40.592Z,0
2022-08-18T02:56:46.962Z,0
2022-08-18T02:57:53.359Z,0
2022-08-18T02:58:59.767Z,0
2022-08-18T03:00:06.146Z,0
2022-08-18T03:01:12.538Z,0
2022-08-18T03:02:18.932Z,0
2022-08-18T03:03:25.342Z,0
2022-08-18T03:04:31.729Z,0
2022-08-18T03:05:38.134Z,0
2022-08-18T03:06:44.544Z,0
2022-08-18T03:07:50.933Z,0
2022-08-18T03:08:57.332Z,0
2022-08-18T03:10:03.734Z,0
2022-08-18T03:11:10.139Z,0
2022-08-18T03:12:16.547Z,0
2022-08-18T03:13:22.925Z,0
2022-08-18T03:14:29.327Z,0
2022-08-18T03:15:35.729Z,0
2022-08-18T03:16:42.252Z,0
2022-08-18T03:17:48.781Z,0
2022-08-18T03:18:55.282Z,0
2022-08-18T03:20:01.808Z,0
2022-08-18T03:21:08.317Z,0
2022-08-18T03:22:14.833Z,0
2022-08-18T03:23:21.358Z,0
2022-08-18T03:24:27.861Z,0
2022-08-18T03:25:34.366Z,0
2022-08-18T03:26:40.872Z,0
2022-08-18T03:27:47.386Z,0
2022-08-18T03:28:53.893Z,0
2022-08-18T03:30:00.413Z,0
2022-08-18T03:31:33.723Z,0
2022-08-18T03:32:40.488Z,0
2022-08-18T03:33:47.248Z,0
2022-08-18T03:34:54.000Z,0
2022-08-18T03:36:00.757Z,0
2022-08-18T03:37:07.516Z,0
2022-08-18T03:38:14.285Z,0
2022-08-18T03:39:21.031Z,0
2022-08-18T03:40:27.793Z,0
2022-08-18T03:41:34.566Z,0
2022-08-18T03:42:41.314Z,0
2022-08-18T03:43:48.079Z,0
2022-08-18T03:44:54.831Z,0
2022-08-18T03:48:12.983Z,0
2022-08-18T03:49:51.707Z,0
2022-08-18T03:51:30.429Z,0
2022-08-18T03:52:37.677Z,0
2022-08-18T03:53:44.923Z,0
2022-08-18T03:55:23.641Z,0
2022-08-18T03:57:02.384Z,0
2022-08-18T03:58:41.116Z,0
2022-08-18T04:00:19.852Z,0
2022-08-18T04:01:58.593Z,0
2022-08-18T04:03:37.321Z,0
2022-08-18T04:05:16.046Z,0
2022-08-18T04:06:54.785Z,0
2022-08-18T04:09:05.660Z,0
2022-08-18T04:11:00.933Z,5
2022-08-18T04:12:07.351Z,5
2022-08-18T04:13:13.765Z,5
2022-08-18T04:14:20.188Z,5
2022-08-18T04:15:26.611Z,5
2022-08-18T04:16:33.021Z,5
2022-08-18T04:17:39.451Z,5
2022-08-18T04:18:45.810Z,5
2022-08-18T04:19:52.186Z,5
2022-08-18T04:20:58.554Z,5
2022-08-18T04:22:04.963Z,11
2022-08-18T04:23:11.389Z,11
2022-08-18T04:24:17.823Z,16
2022-08-18T04:25:24.271Z,16
2022-08-18T04:26:30.695Z,16
2022-08-18T04:27:37.132Z,22
2022-08-18T04:28:43.559Z,28
2022-08-18T04:29:49.997Z,28
2022-08-18T04:30:56.439Z,28
2022-08-18T04:32:02.858Z,28
2022-08-18T04:33:09.293Z,28
2022-08-18T04:34:15.733Z,28
2022-08-18T04:35:22.164Z,28
2022-08-18T04:36:28.601Z,33
2022-08-18T04:37:35.026Z,39
2022-08-18T04:38:41.587Z,45
2022-08-18T04:39:48.122Z,45
2022-08-18T04:40:54.669Z,45
2022-08-18T04:42:01.218Z,39
2022-08-18T04:43:07.772Z,33
2022-08-18T04:44:14.334Z,33
2022-08-18T04:45:20.892Z,33
2022-08-18T04:46:27.451Z,39
2022-08-18T04:47:33.994Z,33
2022-08-18T04:48:40.541Z,33
2022-08-18T04:49:47.099Z,33
2022-08-18T04:50:53.645Z,33
2022-08-18T04:52:00.209Z,33
2022-08-18T04:54:14.814Z,28
2022-08-18T04:55:21.604Z,28
2022-08-18T04:56:28.393Z,39
2022-08-18T04:57:35.202Z,39
2022-08-18T04:58:41.987Z,45
2022-08-18T04:59:48.785Z,45
2022-08-18T05:00:55.557Z,45
2022-08-18T05:02:02.335Z,45
2022-08-18T05:03:09.122Z,39
2022-08-18T05:04:15.917Z,50
2022-08-18T05:05:22.699Z,39
2022-08-18T05:06:29.489Z,39
2022-08-18T05:09:47.685Z,45
2022-08-18T05:10:54.963Z,67
2022-08-18T05:12:02.224Z,73
2022-08-18T05:13:40.970Z,73
2022-08-18T05:15:19.706Z,67
2022-08-18T05:16:58.447Z,61
2022-08-18T05:18:37.180Z,61
2022-08-18T05:20:15.924Z,50
2022-08-18T05:21:54.665Z,45
2022-08-18T05:23:33.381Z,45
2022-08-18T05:25:12.109Z,45
2022-08-18T05:26:50.834Z,45
2022-08-18T05:27:58.107Z,50
2022-08-18T05:30:58.840Z,61
2022-08-18T05:34:14.555Z,106
2022-08-18T05:35:21.119Z,123
2022-08-18T05:36:27.669Z,123
2022-08-18T05:37:34.231Z,112
2022-08-18T05:38:40.802Z,112
2022-08-18T05:39:47.349Z,106
2022-08-18T05:40:53.873Z,95
2022-08-18T05:42:00.413Z,90
2022-08-18T05:43:06.956Z,90
2022-08-18T05:44:13.509Z,78
2022-08-18T05:45:20.048Z,73
2022-08-18T05:46:26.591Z,73
2022-08-18T05:47:33.138Z,78
2022-08-18T05:48:39.679Z,78
2022-08-18T05:49:46.225Z,67
2022-08-18T05:50:52.762Z,61
2022-08-18T05:51:59.312Z,84
2022-08-18T05:53:05.855Z,90
2022-08-18T05:54:12.393Z,95
2022-08-18T05:55:18.889Z,95
2022-08-18T05:56:25.433Z,101
2022-08-18T05:57:31.982Z,106
2022-08-18T05:58:38.534Z,129
2022-08-18T05:59:45.093Z,112
2022-08-18T06:00:51.657Z,101
2022-08-18T06:01:58.439Z,90
2022-08-18T06:03:05.233Z,67
2022-08-18T06:04:12.020Z,73
2022-08-18T06:05:18.807Z,95
2022-08-18T06:06:25.567Z,129
2022-08-18T06:07:32.375Z,146
2022-08-18T06:08:39.179Z,129
2022-08-18T06:09:45.992Z,129
2022-08-18T06:10:52.779Z,140
2022-08-18T06:11:59.577Z,135
2022-08-18T06:13:06.384Z,0
2022-08-18T06:14:13.173Z,0
2022-08-18T06:15:19.978Z,0
2022-08-18T06:16:27.289Z,0
2022-08-18T06:18:06.015Z,151
2022-08-18T06:19:44.743Z,0
2022-08-18T06:21:23.459Z,174
2022-08-18T06:23:02.175Z,157
2022-08-18T06:24:40.898Z,0
2022-08-18T06:26:19.611Z,0
2022-08-18T06:27:58.319Z,0
2022-08-18T06:29:37.034Z,174
2022-08-18T06:31:15.757Z,0
2022-08-18T06:32:54.463Z,0
2022-08-18T06:34:33.196Z,151
2022-08-18T06:36:11.918Z,180
2022-08-18T06:40:19.909Z,230
2022-08-18T06:41:26.485Z,0
2022-08-18T06:43:35.615Z,320
2022-08-18T06:44:42.160Z,0
2022-08-18T06:45:48.718Z,0
2022-08-18T06:46:55.263Z,0
2022-08-18T06:48:01.820Z,0
2022-08-18T06:49:08.382Z,0
2022-08-18T06:50:14.947Z,0
2022-08-18T06:51:21.518Z,0
2022-08-18T06:52:28.070Z,0
2022-08-18T06:53:34.626Z,0
2022-08-18T06:54:41.199Z,0
2022-08-18T06:55:47.759Z,286
2022-08-18T06:56:54.310Z,0
2022-08-18T06:58:00.879Z,0
2022-08-18T06:59:07.434Z,0
2022-08-18T07:00:13.996Z,0
2022-08-18T07:01:20.561Z,0
2022-08-18T07:02:27.118Z,0
2022-08-18T07:03:33.673Z,0
2022-08-18T07:04:40.232Z,0
2022-08-18T07:05:46.792Z,0
2022-08-18T07:06:53.348Z,0
2022-08-18T07:07:59.906Z,0
2022-08-18T07:09:06.463Z,0
2022-08-18T07:10:13.247Z,0
2022-08-18T07:11:20.053Z,0
2022-08-18T07:12:26.853Z,0
2022-08-18T07:13:33.643Z,0
2022-08-18T07:14:40.448Z,0
2022-08-18T07:15:47.243Z,0
2022-08-18T07:16:54.041Z,0
2022-08-18T07:18:00.840Z,0
2022-08-18T07:19:07.639Z,0
2022-08-18T07:20:14.437Z,0
2022-08-18T07:21:21.246Z,0
2022-08-18T07:22:28.028Z,0
2022-08-18T07:23:34.816Z,0
2022-08-18T07:26:14.202Z,0
2022-08-18T07:27:52.923Z,0
2022-08-18T07:29:31.651Z,0
2022-08-18T07:31:10.380Z,0
2022-08-18T07:32:17.664Z,0
2022-08-18T07:33:24.954Z,0
2022-08-18T07:35:03.683Z,0
2022-08-18T07:36:42.414Z,0
2022-08-18T07:38:21.150Z,0
2022-08-18T07:39:59.877Z,0
2022-08-18T07:41:38.598Z,0
2022-08-18T07:43:17.310Z,0
2022-08-18T07:44:56.055Z,0
2022-08-18T07:48:45.689Z,0
2022-08-18T07:49:52.153Z,0
2022-08-18T07:50:58.599Z,0
2022-08-18T07:52:05.039Z,0
2022-08-18T07:53:11.480Z,0
2022-08-18T07:54:17.909Z,0
2022-08-18T07:55:24.354Z,0
2022-08-18T07:56:30.781Z,0
2022-08-18T07:57:37.231Z,0
2022-08-18T07:58:43.646Z,0
2022-08-18T07:59:50.086Z,0
2022-08-18T08:00:56.513Z,0
2022-08-18T08:02:02.948Z,0
2022-08-18T08:03:09.393Z,0
2022-08-18T08:04:15.824Z,0
2022-08-18T08:05:22.254Z,0
2022-08-18T08:06:28.686Z,0
2022-08-18T08:07:35.136Z,0
2022-08-18T08:08:41.569Z,0
2022-08-18T08:09:48.005Z,0
2022-08-18T08:10:54.455Z,0
2022-08-18T08:12:00.898Z,0
2022-08-18T08:13:07.334Z,0
2022-08-18T08:14:13.780Z,0
2022-08-18T08:15:20.208Z,0
2022-08-18T08:16:26.681Z,0
2022-08-18T08:17:33.226Z,0
2022-08-18T08:18:39.782Z,0
2022-08-18T08:19:46.341Z,0
2022-08-18T08:20:52.903Z,0
2022-08-18T08:21:59.474Z,0
2022-08-18T08:23:06.024Z,0
2022-08-18T08:24:12.589Z,0
2022-08-18T08:25:19.163Z,669
2022-08-18T08:26:25.711Z,0
2022-08-18T08:27:32.279Z,748
2022-08-18T08:28:38.848Z,0
2022-08-18T08:29:45.397Z,787
2022-08-18T08:30:51.953Z,753
2022-08-18T08:32:41.250Z,663
2022-08-18T08:33:48.050Z,691
2022-08-18T08:34:54.859Z,725
2022-08-18T08:36:01.660Z,0
2022-08-18T08:37:08.455Z,658
2022-08-18T08:38:15.259Z,635
2022-08-18T08:39:22.061Z,0
2022-08-18T08:40:28.858Z,0
2022-08-18T08:41:35.658Z,0
2022-08-18T08:42:42.460Z,0
2022-08-18T08:43:49.263Z,0
2022-08-18T08:44:56.068Z,0
2022-08-18T08:46:02.858Z,0
2022-08-18T08:49:21.030Z,0
2022-08-18T08:50:56.487Z,0
2022-08-18T08:52:03.774Z,0
2022-08-18T08:53:42.498Z,0
2022-08-18T08:55:21.232Z,0
2022-08-18T08:56:59.952Z,0
2022-08-18T08:58:38.683Z,793
2022-08-18T09:00:17.410Z,832
2022-08-18T09:01:56.143Z,826
2022-08-18T09:03:34.865Z,697
2022-08-18T09:05:13.598Z,444
2022-08-18T09:06:52.323Z,365
2022-08-18T09:07:59.604Z,360
2022-08-18T09:11:00.302Z,376
2022-08-18T09:14:16.289Z,438
2022-08-18T09:15:23.052Z,585
2022-08-18T09:16:29.845Z,686
2022-08-18T09:17:36.645Z,787
2022-08-18T09:18:43.444Z,832
2022-08-18T09:19:50.258Z,961
2022-08-18T09:20:57.064Z,1018
2022-08-18T09:22:03.819Z,1096
2022-08-18T09:23:10.570Z,1170
2022-08-18T09:24:17.315Z,1338
2022-08-18T09:25:24.076Z,1468
2022-08-18T09:26:30.823Z,1530
2022-08-18T09:27:37.574Z,1563
2022-08-18T09:28:44.331Z,1530
2022-08-18T09:29:51.083Z,1507
2022-08-18T09:30:57.825Z,1434
2022-08-18T09:32:04.578Z,1406
2022-08-18T09:33:11.328Z,1434
2022-08-18T09:34:18.081Z,1423
2022-08-18T09:35:24.839Z,1276
2022-08-18T09:36:31.592Z,1102
2022-08-18T09:37:38.361Z,939
2022-08-18T09:38:45.163Z,832
2022-08-18T09:39:51.972Z,815
2022-08-18T09:40:58.773Z,826
2022-08-18T09:42:32.120Z,877
2022-08-18T09:43:39.398Z,1018
2022-08-18T09:45:18.098Z,1141
2022-08-18T09:46:56.802Z,1293
2022-08-18T09:48:35.511Z,1462
2022-08-18T09:50:14.223Z,1586
2022-08-18T09:51:52.913Z,1771
2022-08-18T09:53:31.615Z,1451
2022-08-18T09:55:10.337Z,1051
2022-08-18T09:56:49.053Z,748
2022-08-18T09:58:27.772Z,568
2022-08-18T09:59:35.066Z,506
2022-08-18T10:00:42.355Z,483
2022-08-18T10:04:50.355Z,450
2022-08-18T10:08:06.087Z,540
2022-08-18T10:09:12.644Z,556
2022-08-18T10:10:19.200Z,568
2022-08-18T10:11:25.760Z,585
2022-08-18T10:12:32.353Z,607
2022-08-18T10:13:38.881Z,646
2022-08-18T10:14:45.480Z,658
2022-08-18T10:15:52.019Z,675
2022-08-18T10:16:58.591Z,691
2022-08-18T10:18:05.158Z,742
2022-08-18T10:19:11.736Z,770
2022-08-18T10:20:18.266Z,759
2022-08-18T10:21:24.852Z,691
2022-08-18T10:22:31.383Z,641
2022-08-18T10:23:37.969Z,596
2022-08-18T10:24:44.514Z,562
2022-08-18T10:25:51.077Z,528
2022-08-18T10:26:57.637Z,523
2022-08-18T10:28:04.193Z,500
2022-08-18T10:29:10.789Z,534
2022-08-18T10:30:17.314Z,545
2022-08-18T10:31:23.878Z,573
2022-08-18T10:32:30.455Z,590
2022-08-18T10:33:37.013Z,596
2022-08-18T10:34:43.563Z,607
2022-08-18T10:35:50.380Z,579
2022-08-18T10:36:57.181Z,573
2022-08-18T10:38:03.990Z,579
2022-08-18T10:39:10.790Z,607
2022-08-18T10:40:17.569Z,663
2022-08-18T10:41:24.386Z,731
2022-08-18T10:42:31.181Z,781
2022-08-18T10:43:38.006Z,815
2022-08-18T10:44:44.818Z,821
2022-08-18T10:45:51.625Z,843
2022-08-18T10:46:58.429Z,871
2022-08-18T10:48:05.202Z,894
2022-08-18T10:49:12.018Z,894
2022-08-18T10:52:30.172Z,877
2022-08-18T10:54:08.880Z,950
2022-08-18T10:55:47.592Z,1068
2022-08-18T10:56:54.851Z,1186
2022-08-18T10:58:02.089Z,1226
2022-08-18T10:59:40.779Z,1147
2022-08-18T11:01:19.486Z,1226
2022-08-18T11:02:58.210Z,1406
2022-08-18T11:04:36.890Z,1411
2022-08-18T11:06:15.621Z,1462
2022-08-18T11:07:54.341Z,1321
2022-08-18T11:09:33.049Z,1260
2022-08-18T11:11:11.771Z,1248
2022-08-18T11:13:22.882Z,1226
2022-08-18T11:15:17.943Z,1164
2022-08-18T11:16:24.345Z,1046
2022-08-18T11:17:30.801Z,990
2022-08-18T11:18:37.155Z,939
2022-08-18T11:19:43.559Z,900
2022-08-18T11:20:49.940Z,871
2022-08-18T11:21:56.315Z,855
2022-08-18T11:23:02.686Z,871
2022-08-18T11:24:09.092Z,871
2022-08-18T11:25:15.489Z,866
2022-08-18T11:26:21.872Z,860
2022-08-18T11:27:28.251Z,849
2022-08-18T11:28:34.600Z,855
2022-08-18T11:29:41.004Z,843
2022-08-18T11:30:47.385Z,838
2022-08-18T11:31:53.770Z,849
2022-08-18T11:33:00.186Z,871
2022-08-18T11:34:06.533Z,905
2022-08-18T11:35:12.909Z,939
2022-08-18T11:36:19.292Z,956
2022-08-18T11:37:25.697Z,967
2022-08-18T11:38:32.094Z,995
2022-08-18T11:39:38.477Z,995
2022-08-18T11:40:44.886Z,1012
2022-08-18T11:41:51.305Z,1012
2022-08-18T11:42:57.774Z,1006
2022-08-18T11:44:04.302Z,984
2022-08-18T11:45:10.862Z,990
2022-08-18T11:46:17.462Z,995
2022-08-18T11:47:23.916Z,1018
2022-08-18T11:48:30.469Z,1046
2022-08-18T11:49:36.973Z,1091
2022-08-18T11:50:43.471Z,1125
2022-08-18T11:51:49.953Z,1153
2022-08-18T11:52:56.468Z,1186
2022-08-18T11:54:02.972Z,1220
2022-08-18T11:55:09.474Z,1243
2022-08-18T11:56:16.043Z,1293
2022-08-18T11:57:23.959Z,1327
2022-08-18T11:58:30.703Z,1389
2022-08-18T11:59:37.447Z,1462
2022-08-18T12:00:44.240Z,1518
2022-08-18T12:01:50.992Z,1552
2022-08-18T12:02:57.753Z,1586
2022-08-18T12:04:04.500Z,1597
2022-08-18T12:05:11.338Z,1597
2022-08-18T12:06:18.048Z,1625
2022-08-18T12:07:24.817Z,1659
2022-08-18T12:08:31.583Z,2143
2022-08-18T12:09:38.338Z,1631
2022-08-18T12:10:45.076Z,1575
2022-08-18T12:14:03.197Z,1524
2022-08-18T12:15:10.462Z,1355
2022-08-18T12:16:17.704Z,1372
2022-08-18T12:17:56.495Z,1428
2022-08-18T12:19:35.235Z,1507
2022-08-18T12:21:14.007Z,1608
2022-08-18T12:22:52.743Z,1620
2022-08-18T12:24:31.438Z,1603
2022-08-18T12:26:10.205Z,1704
2022-08-18T12:27:48.963Z,1946
2022-08-18T12:29:27.703Z,1985
2022-08-18T12:31:06.415Z,1895
2022-08-18T12:32:13.654Z,3268
2022-08-18T12:35:14.485Z,3588
2022-08-18T12:38:30.154Z,2503
2022-08-18T12:39:36.657Z,1935
2022-08-18T12:40:43.221Z,2581
2022-08-18T12:41:49.731Z,1631
2022-08-18T12:42:56.245Z,1901
2022-08-18T12:44:02.730Z,2790
2022-08-18T12:45:09.246Z,3650
2022-08-18T12:46:15.797Z,2598
2022-08-18T12:47:22.343Z,2300
2022-08-18T12:48:28.849Z,3577
2022-08-18T12:49:35.359Z,2919
2022-08-18T12:50:41.861Z,1980
2022-08-18T12:51:48.393Z,2058
2022-08-18T12:52:54.898Z,2098
2022-08-18T12:54:01.422Z,1389
2022-08-18T12:55:07.939Z,1248
2022-08-18T12:56:14.454Z,1141
2022-08-18T12:57:20.990Z,1102
2022-08-18T12:58:27.509Z,1091
2022-08-18T12:59:34.034Z,1080
2022-08-18T13:00:40.541Z,1068
2022-08-18T13:01:47.054Z,1040
2022-08-18T13:02:53.563Z,1029
2022-08-18T13:04:00.078Z,1051
2022-08-18T13:05:06.621Z,1068
2022-08-18T13:06:13.363Z,1012
2022-08-18T13:07:20.141Z,950
2022-08-18T13:08:26.862Z,916
2022-08-18T13:09:33.621Z,866
2022-08-18T13:10:40.380Z,810
2022-08-18T13:11:47.191Z,770
2022-08-18T13:12:53.901Z,731
2022-08-18T13:14:00.629Z,714
2022-08-18T13:15:07.374Z,703
2022-08-18T13:16:14.148Z,708
2022-08-18T13:17:20.889Z,691
2022-08-18T13:18:27.649Z,675
2022-08-18T13:19:34.393Z,646
2022-08-18T13:20:41.664Z,630
2022-08-18T13:22:20.353Z,601
2022-08-18T13:23:59.062Z,601
2022-08-18T13:25:37.831Z,624
2022-08-18T13:27:16.499Z,624
2022-08-18T13:28:55.182Z,624
2022-08-18T13:30:33.963Z,630
2022-08-18T13:32:12.630Z,635
2022-08-18T13:33:51.333Z,663
2022-08-18T13:35:30.062Z,680
2022-08-18T13:37:08.751Z,703
2022-08-18T13:38:47.495Z,736
2022-08-18T13:40:26.180Z,770
2022-08-18T13:44:34.264Z,787
2022-08-18T13:45:42.424Z,939
2022-08-18T13:47:51.629Z,984
2022-08-18T13:51:07.281Z,1136
2022-08-18T13:52:13.661Z,1231
2022-08-18T13:53:20.066Z,1243
2022-08-18T13:54:26.449Z,1237
2022-08-18T13:55:32.845Z,1243
2022-08-18T13:56:39.230Z,1231
2022-08-18T13:57:45.620Z,1288
2022-08-18T13:58:52.030Z,1327
2022-08-18T13:59:58.460Z,1282
2022-08-18T14:01:04.858Z,1282
2022-08-18T14:02:11.239Z,1282
2022-08-18T14:03:17.603Z,1293
2022-08-18T14:04:23.987Z,1276
2022-08-18T14:05:30.385Z,1260
2022-08-18T14:06:36.813Z,1248
2022-08-18T14:07:43.185Z,1248
2022-08-18T14:08:49.579Z,1254
2022-08-18T14:09:56.055Z,1248
2022-08-18T14:11:02.362Z,1260
2022-08-18T14:12:08.778Z,1265
2022-08-18T14:13:15.165Z,1288
2022-08-18T14:14:21.594Z,1316
2022-08-18T14:15:27.969Z,1361
2022-08-18T14:16:34.397Z,1434
2022-08-18T14:17:40.739Z,1496
2022-08-18T14:18:47.295Z,1760
2022-08-18T14:19:53.831Z,1546
2022-08-18T14:21:00.341Z,1501
2022-08-18T14:22:06.870Z,1327
2022-08-18T14:23:13.375Z,1293
2022-08-18T14:24:19.891Z,1254
2022-08-18T14:25:26.393Z,1282
2022-08-18T14:26:32.932Z,1265
2022-08-18T14:27:39.435Z,1310
2022-08-18T14:28:45.943Z,1321
2022-08-18T14:29:52.494Z,1344
2022-08-18T14:30:58.982Z,1338
2022-08-18T14:32:05.508Z,1496
2022-08-18T14:33:54.836Z,1260
2022-08-18T14:35:01.607Z,1096
2022-08-18T14:36:08.390Z,1074
2022-08-18T14:37:15.125Z,1046
2022-08-18T14:38:21.894Z,1018
2022-08-18T14:39:28.658Z,1051
2022-08-18T14:40:35.413Z,1085
2022-08-18T14:41:42.203Z,1096
2022-08-18T14:42:48.942Z,1085
2022-08-18T14:43:55.701Z,1046
2022-08-18T14:45:02.479Z,1046
2022-08-18T14:46:09.196Z,1063
2022-08-18T14:47:15.956Z,1080
2022-08-18T14:50:34.087Z,1085
2022-08-18T14:52:12.825Z,1085
2022-08-18T14:53:20.123Z,1141
2022-08-18T14:54:27.358Z,1119
2022-08-18T14:56:06.091Z,1395
2022-08-18T14:57:44.834Z,1018
2022-08-18T14:59:23.580Z,973
2022-08-18T15:01:02.312Z,945
2022-08-18T15:02:41.096Z,1158
2022-08-18T15:04:19.774Z,978
2022-08-18T15:05:58.478Z,995
2022-08-18T15:07:37.223Z,1085
2022-08-18T15:09:15.938Z,928
2022-08-18T15:10:55.687Z,843
2022-08-18T15:14:13.069Z,804
2022-08-18T15:17:30.496Z,995
2022-08-18T15:20:47.957Z,1051
2022-08-18T15:24:03.540Z,1456
2022-08-18T15:25:09.918Z,1766
2022-08-18T15:26:16.341Z,1625
2022-08-18T15:27:22.734Z,1710
2022-08-18T15:28:29.162Z,1771
2022-08-18T15:29:35.525Z,1822
2022-08-18T15:30:41.959Z,1676
2022-08-18T15:31:48.333Z,1541
2022-08-18T15:32:54.754Z,1608
2022-08-18T15:34:01.150Z,804
2022-08-18T15:35:07.510Z,708
2022-08-18T15:36:13.923Z,916
2022-08-18T15:37:20.337Z,697
2022-08-18T15:38:26.716Z,663
2022-08-18T15:39:33.106Z,708
2022-08-18T15:40:39.537Z,669
2022-08-18T15:41:45.929Z,1530
2022-08-18T15:42:52.282Z,1552
2022-08-18T15:43:58.680Z,1631
2022-08-18T15:45:05.061Z,1676
2022-08-18T15:46:11.505Z,1580
2022-08-18T15:47:18.020Z,1575
2022-08-18T15:48:24.303Z,1546
2022-08-18T15:49:30.689Z,1524
2022-08-18T15:50:37.109Z,1524
2022-08-18T15:51:43.606Z,1012
2022-08-18T15:52:50.139Z,1226
2022-08-18T15:53:56.671Z,1406
2022-08-18T15:55:03.174Z,1490
2022-08-18T15:56:09.675Z,1440
2022-08-18T15:57:16.202Z,1378
2022-08-18T15:58:22.731Z,1299
2022-08-18T15:59:29.240Z,607
2022-08-18T16:00:35.812Z,1147
2022-08-18T16:01:42.305Z,1091
2022-08-18T16:02:48.807Z,1186
2022-08-18T16:03:55.330Z,1164
2022-08-18T16:05:01.885Z,1243
2022-08-18T16:06:51.210Z,1276
2022-08-18T16:07:57.977Z,1316
2022-08-18T16:09:04.727Z,1361
2022-08-18T16:10:11.489Z,1164
2022-08-18T16:11:18.259Z,781
2022-08-18T16:12:25.017Z,720
2022-08-18T16:13:31.765Z,686
2022-08-18T16:14:38.518Z,669
2022-08-18T16:15:45.296Z,770
2022-08-18T16:16:52.002Z,1035
2022-08-18T16:17:58.776Z,1119
2022-08-18T16:19:05.536Z,742
2022-08-18T16:20:12.291Z,658
2022-08-18T16:23:30.517Z,1091
2022-08-18T16:25:09.249Z,1136
2022-08-18T16:26:16.520Z,883
2022-08-18T16:27:23.769Z,618
2022-08-18T16:29:02.460Z,630
2022-08-18T16:30:41.176Z,708
2022-08-18T16:32:19.878Z,658
2022-08-18T16:33:58.583Z,517
2022-08-18T16:35:37.318Z,500
2022-08-18T16:37:16.027Z,562
2022-08-18T16:38:54.730Z,455
2022-08-18T16:40:33.461Z,433
2022-08-18T16:42:12.148Z,421
2022-08-18T16:43:51.855Z,405
2022-08-18T16:47:09.262Z,405
2022-08-18T16:50:26.686Z,388
2022-08-18T16:53:44.092Z,393
2022-08-18T16:56:59.803Z,410
2022-08-18T16:58:06.375Z,365
2022-08-18T16:59:12.947Z,365
2022-08-18T17:00:19.498Z,365
2022-08-18T17:01:26.044Z,360
2022-08-18T17:02:32.574Z,365
2022-08-18T17:03:39.139Z,354
2022-08-18T17:04:45.707Z,348
2022-08-18T17:05:52.274Z,343
2022-08-18T17:06:58.829Z,343
2022-08-18T17:08:05.394Z,343
2022-08-18T17:09:11.974Z,337
2022-08-18T17:10:18.528Z,337
2022-08-18T17:11:25.073Z,331
2022-08-18T17:12:31.647Z,326
2022-08-18T17:13:38.207Z,320
2022-08-18T17:14:44.763Z,315
2022-08-18T17:15:51.324Z,303
2022-08-18T17:16:57.890Z,303
2022-08-18T17:18:04.452Z,303
2022-08-18T17:19:11.022Z,292
2022-08-18T17:20:17.583Z,286
2022-08-18T17:21:24.146Z,281
2022-08-18T17:22:30.724Z,281
2022-08-18T17:23:37.285Z,275
2022-08-18T17:24:44.074Z,275
2022-08-18T17:25:50.877Z,270
2022-08-18T17:26:57.667Z,270
2022-08-18T17:28:04.459Z,264
2022-08-18T17:29:11.262Z,264
2022-08-18T17:30:18.066Z,270
2022-08-18T17:31:24.871Z,264
2022-08-18T17:32:31.679Z,258
2022-08-18T17:33:38.495Z,253
2022-08-18T17:34:45.297Z,253
2022-08-18T17:35:52.122Z,247
2022-08-18T17:36:58.907Z,247
2022-08-18T17:38:05.712Z,241
2022-08-18T17:39:13.021Z,241
2022-08-18T17:40:51.738Z,236
2022-08-18T17:42:30.459Z,230
2022-08-18T17:44:09.166Z,230
2022-08-18T17:45:47.890Z,225
2022-08-18T17:47:26.630Z,219
2022-08-18T17:49:05.370Z,213
2022-08-18T17:50:44.108Z,213
2022-08-18T17:52:22.842Z,202
2022-08-18T17:54:01.561Z,202
2022-08-18T17:55:40.300Z,196
2022-08-18T17:57:19.029Z,191
2022-08-18T17:58:57.755Z,185
2022-08-18T18:03:05.767Z,180
2022-08-18T18:04:12.226Z,163
2022-08-18T18:06:21.374Z,157
2022-08-18T18:07:27.801Z,146
2022-08-18T18:08:34.246Z,146
2022-08-18T18:09:40.678Z,140
2022-08-18T18:10:47.114Z,135
2022-08-18T18:11:53.550Z,129
2022-08-18T18:12:59.999Z,135
2022-08-18T18:14:06.448Z,123
2022-08-18T18:15:12.890Z,118
2022-08-18T18:16:19.337Z,118
2022-08-18T18:17:25.779Z,112
2022-08-18T18:18:32.223Z,106
2022-08-18T18:19:38.661Z,106
2022-08-18T18:20:45.103Z,101
2022-08-18T18:21:51.552Z,101
2022-08-18T18:22:57.962Z,101
2022-08-18T18:24:04.420Z,95
2022-08-18T18:25:10.860Z,95
2022-08-18T18:26:17.275Z,90
2022-08-18T18:27:23.703Z,84
2022-08-18T18:28:30.145Z,84